sensor_id;sensor_type;location;lat;lon;timestamp;P1;durP1;ratioP1;P2;durP2;ratioP2
37051;SDS011;22964;52.272;13.356;2023-12-20T00:01:22;3.65;;;2.50;;
37051;SDS011;22964;52.272;13.356;2023-12-20T00:03:48;3.42;;;2.35;;
37051;SDS011;22964;52.272;13.356;2023-12-20T00:06:15;3.53;;;2.20;;
37051;SDS011;22964;52.272;13.356;2023-12-20T00:08:40;4.45;;;2.60;;
37051;SDS011;22964;52.272;13.356;2023-12-20T00:11:06;3.33;;;2.53;;
37051;SDS011;22964;52.272;13.356;2023-12-20T00:13:32;3.60;;;2.53;;
37051;SDS011;22964;52.272;13.356;2023-12-20T00:15:57;3.25;;;2.40;;
37051;SDS011;22964;52.272;13.356;2023-12-20T00:18:23;3.35;;;2.50;;
37051;SDS011;22964;52.272;13.356;2023-12-20T00:20:49;3.67;;;2.60;;
37051;SDS011;22964;52.272;13.356;2023-12-20T00:23:14;2.97;;;2.42;;
37051;SDS011;22964;52.272;13.356;2023-12-20T00:25:40;3.40;;;2.50;;
37051;SDS011;22964;52.272;13.356;2023-12-20T00:28:06;3.55;;;2.65;;
37051;SDS011;22964;52.272;13.356;2023-12-20T00:30:32;3.40;;;2.38;;
37051;SDS011;22964;52.272;13.356;2023-12-20T00:32:57;3.70;;;2.40;;
37051;SDS011;22964;52.272;13.356;2023-12-20T00:35:23;2.92;;;2.25;;
37051;SDS011;22964;52.272;13.356;2023-12-20T00:37:49;3.47;;;2.58;;
37051;SDS011;22964;52.272;13.356;2023-12-20T00:40:15;3.25;;;2.25;;
37051;SDS011;22964;52.272;13.356;2023-12-20T00:42:41;3.22;;;2.40;;
37051;SDS011;22964;52.272;13.356;2023-12-20T00:45:06;3.20;;;2.50;;
37051;SDS011;22964;52.272;13.356;2023-12-20T00:47:32;2.90;;;2.20;;
37051;SDS011;22964;52.272;13.356;2023-12-20T00:49:58;3.28;;;2.55;;
37051;SDS011;22964;52.272;13.356;2023-12-20T00:52:24;3.53;;;2.55;;
37051;SDS011;22964;52.272;13.356;2023-12-20T00:54:50;3.47;;;2.53;;
37051;SDS011;22964;52.272;13.356;2023-12-20T00:57:16;3.22;;;2.50;;
37051;SDS011;22964;52.272;13.356;2023-12-20T00:59:42;3.50;;;2.40;;
37051;SDS011;22964;52.272;13.356;2023-12-20T01:02:08;3.47;;;2.65;;
37051;SDS011;22964;52.272;13.356;2023-12-20T01:04:35;5.72;;;2.65;;
37051;SDS011;22964;52.272;13.356;2023-12-20T01:07:01;3.75;;;2.60;;
37051;SDS011;22964;52.272;13.356;2023-12-20T01:09:27;3.58;;;2.63;;
37051;SDS011;22964;52.272;13.356;2023-12-20T01:11:52;5.07;;;2.53;;
37051;SDS011;22964;52.272;13.356;2023-12-20T01:14:18;4.63;;;2.67;;
37051;SDS011;22964;52.272;13.356;2023-12-20T01:16:44;3.35;;;2.53;;
37051;SDS011;22964;52.272;13.356;2023-12-20T01:19:10;3.60;;;2.50;;
37051;SDS011;22964;52.272;13.356;2023-12-20T01:21:36;4.10;;;2.40;;
37051;SDS011;22964;52.272;13.356;2023-12-20T01:24:01;3.75;;;2.60;;
37051;SDS011;22964;52.272;13.356;2023-12-20T01:26:27;3.10;;;2.20;;
37051;SDS011;22964;52.272;13.356;2023-12-20T01:28:53;3.60;;;2.72;;
37051;SDS011;22964;52.272;13.356;2023-12-20T01:31:18;3.40;;;2.60;;
37051;SDS011;22964;52.272;13.356;2023-12-20T01:33:44;3.40;;;2.47;;
37051;SDS011;22964;52.272;13.356;2023-12-20T01:36:10;3.00;;;2.10;;
37051;SDS011;22964;52.272;13.356;2023-12-20T01:38:36;3.63;;;2.55;;
37051;SDS011;22964;52.272;13.356;2023-12-20T01:41:02;3.17;;;2.50;;
37051;SDS011;22964;52.272;13.356;2023-12-20T01:43:28;2.88;;;2.25;;
37051;SDS011;22964;52.272;13.356;2023-12-20T01:45:55;3.70;;;2.60;;
37051;SDS011;22964;52.272;13.356;2023-12-20T01:48:22;4.53;;;2.50;;
37051;SDS011;22964;52.272;13.356;2023-12-20T01:50:49;3.22;;;2.40;;
37051;SDS011;22964;52.272;13.356;2023-12-20T01:53:15;3.10;;;2.42;;
37051;SDS011;22964;52.272;13.356;2023-12-20T01:55:41;3.60;;;2.67;;
37051;SDS011;22964;52.272;13.356;2023-12-20T01:58:08;3.83;;;2.55;;
37051;SDS011;22964;52.272;13.356;2023-12-20T02:00:36;3.05;;;2.30;;
37051;SDS011;22964;52.272;13.356;2023-12-20T02:03:02;3.20;;;2.50;;
37051;SDS011;22964;52.272;13.356;2023-12-20T02:05:32;2.92;;;2.25;;
37051;SDS011;22964;52.272;13.356;2023-12-20T02:07:59;3.05;;;2.22;;
37051;SDS011;22964;52.272;13.356;2023-12-20T02:10:25;3.20;;;2.33;;
37051;SDS011;22964;52.272;13.356;2023-12-20T02:12:52;2.88;;;2.15;;
37051;SDS011;22964;52.272;13.356;2023-12-20T02:15:18;2.63;;;2.15;;
37051;SDS011;22964;52.272;13.356;2023-12-20T02:17:44;2.70;;;2.00;;
37051;SDS011;22964;52.272;13.356;2023-12-20T02:20:11;2.92;;;2.10;;
37051;SDS011;22964;52.272;13.356;2023-12-20T02:22:37;2.95;;;2.20;;
37051;SDS011;22964;52.272;13.356;2023-12-20T02:25:03;2.85;;;2.22;;
37051;SDS011;22964;52.272;13.356;2023-12-20T02:27:29;2.92;;;2.15;;
37051;SDS011;22964;52.272;13.356;2023-12-20T02:29:55;2.50;;;1.95;;
37051;SDS011;22964;52.272;13.356;2023-12-20T02:32:21;2.70;;;1.95;;
37051;SDS011;22964;52.272;13.356;2023-12-20T02:34:48;3.13;;;2.10;;
37051;SDS011;22964;52.272;13.356;2023-12-20T02:37:14;2.88;;;2.17;;
37051;SDS011;22964;52.272;13.356;2023-12-20T02:39:39;2.67;;;2.08;;
37051;SDS011;22964;52.272;13.356;2023-12-20T02:42:05;2.75;;;2.10;;
37051;SDS011;22964;52.272;13.356;2023-12-20T02:44:31;3.00;;;2.08;;
37051;SDS011;22964;52.272;13.356;2023-12-20T02:46:56;2.45;;;1.90;;
37051;SDS011;22964;52.272;13.356;2023-12-20T02:49:22;3.35;;;2.00;;
37051;SDS011;22964;52.272;13.356;2023-12-20T02:51:48;2.75;;;1.90;;
37051;SDS011;22964;52.272;13.356;2023-12-20T02:54:14;2.33;;;1.73;;
37051;SDS011;22964;52.272;13.356;2023-12-20T02:56:39;2.53;;;1.90;;
37051;SDS011;22964;52.272;13.356;2023-12-20T02:59:05;2.17;;;1.70;;
37051;SDS011;22964;52.272;13.356;2023-12-20T03:01:33;2.00;;;1.60;;
37051;SDS011;22964;52.272;13.356;2023-12-20T03:03:59;2.80;;;1.83;;
37051;SDS011;22964;52.272;13.356;2023-12-20T03:06:25;2.33;;;1.75;;
37051;SDS011;22964;52.272;13.356;2023-12-20T03:08:51;2.15;;;1.65;;
37051;SDS011;22964;52.272;13.356;2023-12-20T03:11:17;2.00;;;1.50;;
37051;SDS011;22964;52.272;13.356;2023-12-20T03:13:42;3.58;;;1.67;;
37051;SDS011;22964;52.272;13.356;2023-12-20T03:16:09;1.90;;;1.50;;
37051;SDS011;22964;52.272;13.356;2023-12-20T03:18:35;1.65;;;1.30;;
37051;SDS011;22964;52.272;13.356;2023-12-20T03:21:01;8.70;;;1.70;;
37051;SDS011;22964;52.272;13.356;2023-12-20T03:23:27;2.08;;;1.42;;
37051;SDS011;22964;52.272;13.356;2023-12-20T03:25:52;2.30;;;1.55;;
37051;SDS011;22964;52.272;13.356;2023-12-20T03:28:18;2.15;;;1.70;;
37051;SDS011;22964;52.272;13.356;2023-12-20T03:30:44;1.90;;;1.50;;
37051;SDS011;22964;52.272;13.356;2023-12-20T03:33:10;2.22;;;1.42;;
37051;SDS011;22964;52.272;13.356;2023-12-20T03:35:36;1.90;;;1.50;;
37051;SDS011;22964;52.272;13.356;2023-12-20T03:38:02;2.13;;;1.45;;
37051;SDS011;22964;52.272;13.356;2023-12-20T03:40:28;1.73;;;1.42;;
37051;SDS011;22964;52.272;13.356;2023-12-20T03:42:53;2.13;;;1.50;;
37051;SDS011;22964;52.272;13.356;2023-12-20T03:45:19;1.95;;;1.50;;
37051;SDS011;22964;52.272;13.356;2023-12-20T03:47:45;2.53;;;1.48;;
37051;SDS011;22964;52.272;13.356;2023-12-20T03:50:10;2.22;;;1.70;;
37051;SDS011;22964;52.272;13.356;2023-12-20T03:52:36;2.83;;;1.77;;
37051;SDS011;22964;52.272;13.356;2023-12-20T03:55:02;2.08;;;1.65;;
37051;SDS011;22964;52.272;13.356;2023-12-20T03:57:28;2.33;;;1.70;;
37051;SDS011;22964;52.272;13.356;2023-12-20T03:59:53;2.30;;;1.77;;
37051;SDS011;22964;52.272;13.356;2023-12-20T04:02:19;1.90;;;1.52;;
37051;SDS011;22964;52.272;13.356;2023-12-20T04:04:45;2.40;;;1.75;;
37051;SDS011;22964;52.272;13.356;2023-12-20T04:07:10;2.67;;;1.90;;
37051;SDS011;22964;52.272;13.356;2023-12-20T04:09:36;2.30;;;1.60;;
37051;SDS011;22964;52.272;13.356;2023-12-20T04:12:02;3.20;;;1.58;;
37051;SDS011;22964;52.272;13.356;2023-12-20T04:14:28;2.45;;;1.63;;
37051;SDS011;22964;52.272;13.356;2023-12-20T04:16:54;2.25;;;1.60;;
37051;SDS011;22964;52.272;13.356;2023-12-20T04:19:20;2.50;;;1.63;;
37051;SDS011;22964;52.272;13.356;2023-12-20T04:21:45;2.50;;;1.40;;
37051;SDS011;22964;52.272;13.356;2023-12-20T04:24:11;3.35;;;1.60;;
37051;SDS011;22964;52.272;13.356;2023-12-20T04:26:37;3.15;;;1.40;;
37051;SDS011;22964;52.272;13.356;2023-12-20T04:29:02;3.80;;;1.38;;
37051;SDS011;22964;52.272;13.356;2023-12-20T04:31:28;2.13;;;1.30;;
37051;SDS011;22964;52.272;13.356;2023-12-20T04:33:54;4.05;;;1.25;;
37051;SDS011;22964;52.272;13.356;2023-12-20T04:36:19;3.08;;;1.40;;
37051;SDS011;22964;52.272;13.356;2023-12-20T04:38:45;4.45;;;1.50;;
37051;SDS011;22964;52.272;13.356;2023-12-20T04:41:11;1.85;;;1.30;;
37051;SDS011;22964;52.272;13.356;2023-12-20T04:43:40;2.55;;;1.30;;
37051;SDS011;22964;52.272;13.356;2023-12-20T04:46:06;4.78;;;1.30;;
37051;SDS011;22964;52.272;13.356;2023-12-20T04:48:32;3.42;;;1.30;;
37051;SDS011;22964;52.272;13.356;2023-12-20T04:50:58;3.53;;;1.35;;
37051;SDS011;22964;52.272;13.356;2023-12-20T04:53:23;3.35;;;1.48;;
37051;SDS011;22964;52.272;13.356;2023-12-20T04:55:49;3.08;;;1.20;;
37051;SDS011;22964;52.272;13.356;2023-12-20T04:58:15;2.88;;;1.30;;
37051;SDS011;22964;52.272;13.356;2023-12-20T05:00:41;2.63;;;1.15;;
37051;SDS011;22964;52.272;13.356;2023-12-20T05:03:06;3.15;;;1.23;;
37051;SDS011;22964;52.272;13.356;2023-12-20T05:05:33;3.00;;;1.40;;
37051;SDS011;22964;52.272;13.356;2023-12-20T05:07:58;3.10;;;1.38;;
37051;SDS011;22964;52.272;13.356;2023-12-20T05:10:24;3.25;;;1.50;;
37051;SDS011;22964;52.272;13.356;2023-12-20T05:12:51;3.83;;;1.25;;
37051;SDS011;22964;52.272;13.356;2023-12-20T05:15:16;3.35;;;1.30;;
37051;SDS011;22964;52.272;13.356;2023-12-20T05:17:42;5.68;;;1.40;;
37051;SDS011;22964;52.272;13.356;2023-12-20T05:20:08;4.15;;;1.50;;
37051;SDS011;22964;52.272;13.356;2023-12-20T05:22:34;8.23;;;1.50;;
37051;SDS011;22964;52.272;13.356;2023-12-20T05:24:59;4.22;;;1.20;;
37051;SDS011;22964;52.272;13.356;2023-12-20T05:27:25;2.47;;;1.10;;
37051;SDS011;22964;52.272;13.356;2023-12-20T05:29:51;5.43;;;1.40;;
37051;SDS011;22964;52.272;13.356;2023-12-20T05:32:16;4.60;;;1.25;;
37051;SDS011;22964;52.272;13.356;2023-12-20T05:34:42;3.97;;;1.27;;
37051;SDS011;22964;52.272;13.356;2023-12-20T05:37:08;3.00;;;1.20;;
37051;SDS011;22964;52.272;13.356;2023-12-20T05:39:34;4.70;;;1.10;;
37051;SDS011;22964;52.272;13.356;2023-12-20T05:41:59;2.70;;;1.20;;
37051;SDS011;22964;52.272;13.356;2023-12-20T05:44:26;3.13;;;1.20;;
37051;SDS011;22964;52.272;13.356;2023-12-20T05:46:51;4.72;;;1.52;;
37051;SDS011;22964;52.272;13.356;2023-12-20T05:49:17;6.75;;;2.22;;
37051;SDS011;22964;52.272;13.356;2023-12-20T05:51:43;4.80;;;1.95;;
37051;SDS011;22964;52.272;13.356;2023-12-20T05:54:09;6.50;;;1.85;;
37051;SDS011;22964;52.272;13.356;2023-12-20T05:56:34;6.28;;;1.80;;
37051;SDS011;22964;52.272;13.356;2023-12-20T05:59:00;2.75;;;1.45;;
37051;SDS011;22964;52.272;13.356;2023-12-20T06:01:26;5.93;;;2.10;;
37051;SDS011;22964;52.272;13.356;2023-12-20T06:03:51;8.75;;;3.53;;
37051;SDS011;22964;52.272;13.356;2023-12-20T06:06:17;15.00;;;6.65;;
37051;SDS011;22964;52.272;13.356;2023-12-20T06:08:43;7.97;;;3.85;;
37051;SDS011;22964;52.272;13.356;2023-12-20T06:11:09;8.88;;;4.57;;
37051;SDS011;22964;52.272;13.356;2023-12-20T06:13:34;10.25;;;5.20;;
37051;SDS011;22964;52.272;13.356;2023-12-20T06:16:00;9.38;;;4.28;;
37051;SDS011;22964;52.272;13.356;2023-12-20T06:18:26;9.35;;;3.55;;
37051;SDS011;22964;52.272;13.356;2023-12-20T06:20:52;5.35;;;3.03;;
37051;SDS011;22964;52.272;13.356;2023-12-20T06:23:17;6.05;;;3.10;;
37051;SDS011;22964;52.272;13.356;2023-12-20T06:25:43;7.22;;;3.20;;
37051;SDS011;22964;52.272;13.356;2023-12-20T06:28:09;4.70;;;2.60;;
37051;SDS011;22964;52.272;13.356;2023-12-20T06:30:35;5.95;;;2.40;;
37051;SDS011;22964;52.272;13.356;2023-12-20T06:33:01;5.68;;;2.03;;
37051;SDS011;22964;52.272;13.356;2023-12-20T06:35:27;4.07;;;2.00;;
37051;SDS011;22964;52.272;13.356;2023-12-20T06:37:53;8.13;;;2.33;;
37051;SDS011;22964;52.272;13.356;2023-12-20T06:40:19;4.40;;;1.90;;
37051;SDS011;22964;52.272;13.356;2023-12-20T06:42:45;4.78;;;2.10;;
37051;SDS011;22964;52.272;13.356;2023-12-20T06:45:11;3.60;;;1.80;;
37051;SDS011;22964;52.272;13.356;2023-12-20T06:47:37;4.60;;;1.48;;
37051;SDS011;22964;52.272;13.356;2023-12-20T06:50:03;6.75;;;1.98;;
37051;SDS011;22964;52.272;13.356;2023-12-20T06:52:29;4.03;;;1.77;;
37051;SDS011;22964;52.272;13.356;2023-12-20T06:54:55;5.28;;;1.65;;
37051;SDS011;22964;52.272;13.356;2023-12-20T06:57:21;8.77;;;2.65;;
37051;SDS011;22964;52.272;13.356;2023-12-20T06:59:47;5.50;;;1.70;;
37051;SDS011;22964;52.272;13.356;2023-12-20T07:02:12;8.27;;;3.28;;
37051;SDS011;22964;52.272;13.356;2023-12-20T07:04:41;6.50;;;3.45;;
37051;SDS011;22964;52.272;13.356;2023-12-20T07:07:07;5.78;;;1.80;;
37051;SDS011;22964;52.272;13.356;2023-12-20T07:09:33;7.35;;;1.60;;
37051;SDS011;22964;52.272;13.356;2023-12-20T07:11:59;7.28;;;1.40;;
37051;SDS011;22964;52.272;13.356;2023-12-20T07:14:25;3.67;;;1.50;;
37051;SDS011;22964;52.272;13.356;2023-12-20T07:16:51;5.28;;;1.60;;
37051;SDS011;22964;52.272;13.356;2023-12-20T07:19:16;3.15;;;1.58;;
37051;SDS011;22964;52.272;13.356;2023-12-20T07:21:42;5.97;;;1.60;;
37051;SDS011;22964;52.272;13.356;2023-12-20T07:24:08;4.18;;;1.38;;
37051;SDS011;22964;52.272;13.356;2023-12-20T07:26:34;6.28;;;1.50;;
37051;SDS011;22964;52.272;13.356;2023-12-20T07:29:00;5.10;;;1.60;;
37051;SDS011;22964;52.272;13.356;2023-12-20T07:31:26;5.95;;;1.98;;
37051;SDS011;22964;52.272;13.356;2023-12-20T07:33:52;6.57;;;1.73;;
37051;SDS011;22964;52.272;13.356;2023-12-20T07:36:19;3.35;;;1.48;;
37051;SDS011;22964;52.272;13.356;2023-12-20T07:38:44;6.18;;;2.70;;
37051;SDS011;22964;52.272;13.356;2023-12-20T07:41:10;8.43;;;2.38;;
37051;SDS011;22964;52.272;13.356;2023-12-20T07:43:36;8.30;;;2.80;;
37051;SDS011;22964;52.272;13.356;2023-12-20T07:46:05;6.85;;;2.10;;
37051;SDS011;22964;52.272;13.356;2023-12-20T07:48:32;6.30;;;2.10;;
37051;SDS011;22964;52.272;13.356;2023-12-20T07:50:59;8.85;;;1.60;;
37051;SDS011;22964;52.272;13.356;2023-12-20T07:53:25;5.50;;;1.70;;
37051;SDS011;22964;52.272;13.356;2023-12-20T07:55:50;7.57;;;1.65;;
37051;SDS011;22964;52.272;13.356;2023-12-20T07:58:17;10.23;;;1.85;;
37051;SDS011;22964;52.272;13.356;2023-12-20T08:00:43;5.28;;;1.70;;
37051;SDS011;22964;52.272;13.356;2023-12-20T08:03:09;7.75;;;2.15;;
37051;SDS011;22964;52.272;13.356;2023-12-20T08:05:35;10.15;;;2.17;;
37051;SDS011;22964;52.272;13.356;2023-12-20T08:08:01;7.88;;;2.08;;
37051;SDS011;22964;52.272;13.356;2023-12-20T08:10:26;5.93;;;1.88;;
37051;SDS011;22964;52.272;13.356;2023-12-20T08:12:55;5.97;;;1.40;;
37051;SDS011;22964;52.272;13.356;2023-12-20T08:15:20;4.28;;;1.70;;
37051;SDS011;22964;52.272;13.356;2023-12-20T08:17:46;9.57;;;1.80;;
37051;SDS011;22964;52.272;13.356;2023-12-20T08:20:12;8.70;;;1.70;;
37051;SDS011;22964;52.272;13.356;2023-12-20T08:22:37;4.30;;;1.70;;
37051;SDS011;22964;52.272;13.356;2023-12-20T08:25:03;4.70;;;1.77;;
37051;SDS011;22964;52.272;13.356;2023-12-20T08:27:29;4.57;;;1.40;;
37051;SDS011;22964;52.272;13.356;2023-12-20T08:29:57;6.13;;;1.65;;
37051;SDS011;22964;52.272;13.356;2023-12-20T08:32:25;5.43;;;1.60;;
37051;SDS011;22964;52.272;13.356;2023-12-20T08:34:51;5.72;;;1.55;;
37051;SDS011;22964;52.272;13.356;2023-12-20T08:37:17;5.20;;;1.33;;
37051;SDS011;22964;52.272;13.356;2023-12-20T08:39:43;5.20;;;1.67;;
37051;SDS011;22964;52.272;13.356;2023-12-20T08:42:09;5.57;;;1.63;;
37051;SDS011;22964;52.272;13.356;2023-12-20T08:44:35;3.92;;;1.70;;
37051;SDS011;22964;52.272;13.356;2023-12-20T08:47:00;6.22;;;1.60;;
37051;SDS011;22964;52.272;13.356;2023-12-20T08:49:26;3.55;;;1.48;;
37051;SDS011;22964;52.272;13.356;2023-12-20T08:51:53;6.05;;;1.58;;
37051;SDS011;22964;52.272;13.356;2023-12-20T08:54:18;3.15;;;1.40;;
37051;SDS011;22964;52.272;13.356;2023-12-20T08:56:44;6.35;;;1.60;;
37051;SDS011;22964;52.272;13.356;2023-12-20T08:59:11;5.60;;;1.48;;
37051;SDS011;22964;52.272;13.356;2023-12-20T09:01:37;7.10;;;1.67;;
37051;SDS011;22964;52.272;13.356;2023-12-20T09:04:03;7.90;;;1.45;;
37051;SDS011;22964;52.272;13.356;2023-12-20T09:06:29;6.93;;;1.63;;
37051;SDS011;22964;52.272;13.356;2023-12-20T09:08:54;10.50;;;1.58;;
37051;SDS011;22964;52.272;13.356;2023-12-20T09:11:20;3.65;;;1.13;;
37051;SDS011;22964;52.272;13.356;2023-12-20T09:13:46;2.75;;;1.08;;
37051;SDS011;22964;52.272;13.356;2023-12-20T09:16:12;6.40;;;1.25;;
37051;SDS011;22964;52.272;13.356;2023-12-20T09:18:38;2.05;;;0.98;;
37051;SDS011;22964;52.272;13.356;2023-12-20T09:21:04;9.88;;;1.40;;
37051;SDS011;22964;52.272;13.356;2023-12-20T09:23:30;5.43;;;1.23;;
37051;SDS011;22964;52.272;13.356;2023-12-20T09:25:56;6.32;;;1.27;;
37051;SDS011;22964;52.272;13.356;2023-12-20T09:28:22;6.38;;;1.35;;
37051;SDS011;22964;52.272;13.356;2023-12-20T09:30:47;4.95;;;1.23;;
37051;SDS011;22964;52.272;13.356;2023-12-20T09:33:13;5.50;;;1.30;;
37051;SDS011;22964;52.272;13.356;2023-12-20T09:35:39;5.50;;;1.50;;
37051;SDS011;22964;52.272;13.356;2023-12-20T09:38:05;5.82;;;1.40;;
37051;SDS011;22964;52.272;13.356;2023-12-20T09:40:32;3.88;;;1.25;;
37051;SDS011;22964;52.272;13.356;2023-12-20T09:43:04;7.88;;;1.25;;
37051;SDS011;22964;52.272;13.356;2023-12-20T09:45:33;4.63;;;1.30;;
37051;SDS011;22964;52.272;13.356;2023-12-20T09:47:59;4.55;;;1.20;;
37051;SDS011;22964;52.272;13.356;2023-12-20T09:50:26;4.70;;;1.50;;
37051;SDS011;22964;52.272;13.356;2023-12-20T09:52:53;6.07;;;1.40;;
37051;SDS011;22964;52.272;13.356;2023-12-20T09:55:21;4.75;;;1.20;;
37051;SDS011;22964;52.272;13.356;2023-12-20T09:57:47;4.03;;;1.10;;
37051;SDS011;22964;52.272;13.356;2023-12-20T10:00:13;6.43;;;1.50;;
37051;SDS011;22964;52.272;13.356;2023-12-20T10:02:50;4.18;;;1.20;;
37051;SDS011;22964;52.272;13.356;2023-12-20T10:05:23;4.93;;;1.35;;
37051;SDS011;22964;52.272;13.356;2023-12-20T10:07:58;5.63;;;1.20;;
37051;SDS011;22964;52.272;13.356;2023-12-20T10:10:24;4.53;;;1.20;;
37051;SDS011;22964;52.272;13.356;2023-12-20T10:15:32;5.65;;;1.33;;
37051;SDS011;22964;52.272;13.356;2023-12-20T10:17:59;7.05;;;1.23;;
37051;SDS011;22964;52.272;13.356;2023-12-20T10:20:25;6.05;;;1.50;;
37051;SDS011;22964;52.272;13.356;2023-12-20T10:22:51;3.78;;;1.10;;
37051;SDS011;22964;52.272;13.356;2023-12-20T10:25:19;7.07;;;1.40;;
37051;SDS011;22964;52.272;13.356;2023-12-20T10:27:46;4.13;;;1.45;;
37051;SDS011;22964;52.272;13.356;2023-12-20T10:30:12;4.95;;;1.20;;
37051;SDS011;22964;52.272;13.356;2023-12-20T10:32:41;5.65;;;1.23;;
37051;SDS011;22964;52.272;13.356;2023-12-20T10:35:08;4.97;;;1.33;;
37051;SDS011;22964;52.272;13.356;2023-12-20T10:37:37;4.47;;;1.40;;
37051;SDS011;22964;52.272;13.356;2023-12-20T10:40:03;6.78;;;1.50;;
37051;SDS011;22964;52.272;13.356;2023-12-20T10:42:31;5.22;;;1.30;;
37051;SDS011;22964;52.272;13.356;2023-12-20T10:44:59;7.20;;;1.50;;
37051;SDS011;22964;52.272;13.356;2023-12-20T10:47:25;10.82;;;1.92;;
37051;SDS011;22964;52.272;13.356;2023-12-20T10:49:54;4.82;;;1.17;;
37051;SDS011;22964;52.272;13.356;2023-12-20T10:52:22;6.75;;;1.40;;
37051;SDS011;22964;52.272;13.356;2023-12-20T10:54:49;8.20;;;1.80;;
37051;SDS011;22964;52.272;13.356;2023-12-20T10:57:16;5.88;;;1.30;;
37051;SDS011;22964;52.272;13.356;2023-12-20T10:59:43;9.45;;;1.70;;
37051;SDS011;22964;52.272;13.356;2023-12-20T11:02:14;5.55;;;1.42;;
37051;SDS011;22964;52.272;13.356;2023-12-20T11:04:47;7.28;;;1.60;;
37051;SDS011;22964;52.272;13.356;2023-12-20T11:07:25;4.18;;;1.30;;
37051;SDS011;22964;52.272;13.356;2023-12-20T11:10:01;3.28;;;1.20;;
37051;SDS011;22964;52.272;13.356;2023-12-20T11:12:43;6.75;;;1.85;;
37051;SDS011;22964;52.272;13.356;2023-12-20T11:15:22;6.20;;;1.55;;
37051;SDS011;22964;52.272;13.356;2023-12-20T11:17:56;8.57;;;1.60;;
37051;SDS011;22964;52.272;13.356;2023-12-20T11:22:59;6.95;;;1.50;;
37051;SDS011;22964;52.272;13.356;2023-12-20T11:25:25;3.58;;;1.30;;
37051;SDS011;22964;52.272;13.356;2023-12-20T11:33:39;6.57;;;1.30;;
37051;SDS011;22964;52.272;13.356;2023-12-20T11:36:12;4.97;;;1.30;;
37051;SDS011;22964;52.272;13.356;2023-12-20T11:38:39;4.82;;;1.30;;
37051;SDS011;22964;52.272;13.356;2023-12-20T11:41:25;4.53;;;1.30;;
37051;SDS011;22964;52.272;13.356;2023-12-20T11:43:54;5.20;;;1.40;;
37051;SDS011;22964;52.272;13.356;2023-12-20T11:46:21;3.95;;;1.20;;
37051;SDS011;22964;52.272;13.356;2023-12-20T11:48:47;6.07;;;1.95;;
37051;SDS011;22964;52.272;13.356;2023-12-20T11:51:13;5.20;;;1.58;;
37051;SDS011;22964;52.272;13.356;2023-12-20T11:53:39;4.90;;;1.30;;
37051;SDS011;22964;52.272;13.356;2023-12-20T11:56:07;8.63;;;1.38;;
37051;SDS011;22964;52.272;13.356;2023-12-20T11:58:34;3.20;;;1.30;;
37051;SDS011;22964;52.272;13.356;2023-12-20T12:01:00;6.35;;;1.45;;
37051;SDS011;22964;52.272;13.356;2023-12-20T12:03:27;13.88;;;2.03;;
37051;SDS011;22964;52.272;13.356;2023-12-20T12:05:53;8.18;;;1.52;;
37051;SDS011;22964;52.272;13.356;2023-12-20T12:08:19;6.50;;;1.58;;
37051;SDS011;22964;52.272;13.356;2023-12-20T12:10:44;5.82;;;1.67;;
37051;SDS011;22964;52.272;13.356;2023-12-20T12:13:10;5.50;;;1.40;;
37051;SDS011;22964;52.272;13.356;2023-12-20T12:15:37;6.20;;;1.70;;
37051;SDS011;22964;52.272;13.356;2023-12-20T12:18:03;3.80;;;1.40;;
37051;SDS011;22964;52.272;13.356;2023-12-20T12:20:29;8.60;;;1.70;;
37051;SDS011;22964;52.272;13.356;2023-12-20T12:23:13;5.63;;;1.55;;
37051;SDS011;22964;52.272;13.356;2023-12-20T12:25:38;5.78;;;1.50;;
37051;SDS011;22964;52.272;13.356;2023-12-20T12:28:05;3.38;;;1.30;;
37051;SDS011;22964;52.272;13.356;2023-12-20T12:30:30;3.80;;;1.30;;
37051;SDS011;22964;52.272;13.356;2023-12-20T12:32:56;4.40;;;1.42;;
37051;SDS011;22964;52.272;13.356;2023-12-20T12:35:23;4.32;;;1.50;;
37051;SDS011;22964;52.272;13.356;2023-12-20T12:37:49;6.55;;;1.33;;
37051;SDS011;22964;52.272;13.356;2023-12-20T12:40:16;4.45;;;1.50;;
37051;SDS011;22964;52.272;13.356;2023-12-20T12:42:43;5.45;;;1.50;;
37051;SDS011;22964;52.272;13.356;2023-12-20T12:45:10;8.90;;;1.50;;
37051;SDS011;22964;52.272;13.356;2023-12-20T12:47:39;4.35;;;1.38;;
37051;SDS011;22964;52.272;13.356;2023-12-20T12:50:05;4.32;;;1.35;;
37051;SDS011;22964;52.272;13.356;2023-12-20T12:52:31;8.05;;;1.75;;
37051;SDS011;22964;52.272;13.356;2023-12-20T12:54:57;4.15;;;1.50;;
37051;SDS011;22964;52.272;13.356;2023-12-20T12:57:22;5.07;;;1.35;;
37051;SDS011;22964;52.272;13.356;2023-12-20T12:59:49;5.15;;;1.40;;
37051;SDS011;22964;52.272;13.356;2023-12-20T13:02:15;4.68;;;1.70;;
37051;SDS011;22964;52.272;13.356;2023-12-20T13:04:41;3.38;;;1.42;;
37051;SDS011;22964;52.272;13.356;2023-12-20T13:07:08;7.45;;;1.60;;
37051;SDS011;22964;52.272;13.356;2023-12-20T13:09:36;5.38;;;1.70;;
37051;SDS011;22964;52.272;13.356;2023-12-20T13:12:02;6.93;;;1.60;;
37051;SDS011;22964;52.272;13.356;2023-12-20T13:14:30;3.92;;;1.40;;
37051;SDS011;22964;52.272;13.356;2023-12-20T13:16:58;6.20;;;1.70;;
37051;SDS011;22964;52.272;13.356;2023-12-20T13:19:24;3.63;;;1.40;;
37051;SDS011;22964;52.272;13.356;2023-12-20T13:21:49;4.22;;;1.48;;
37051;SDS011;22964;52.272;13.356;2023-12-20T13:24:15;4.88;;;1.55;;
37051;SDS011;22964;52.272;13.356;2023-12-20T13:26:41;6.32;;;1.60;;
37051;SDS011;22964;52.272;13.356;2023-12-20T13:29:06;5.07;;;1.40;;
37051;SDS011;22964;52.272;13.356;2023-12-20T13:31:32;5.30;;;1.73;;
37051;SDS011;22964;52.272;13.356;2023-12-20T13:33:58;7.57;;;1.80;;
37051;SDS011;22964;52.272;13.356;2023-12-20T13:36:24;5.95;;;1.75;;
37051;SDS011;22964;52.272;13.356;2023-12-20T13:38:50;3.42;;;1.33;;
37051;SDS011;22964;52.272;13.356;2023-12-20T13:41:15;5.05;;;1.50;;
37051;SDS011;22964;52.272;13.356;2023-12-20T13:43:41;4.93;;;1.77;;
37051;SDS011;22964;52.272;13.356;2023-12-20T13:46:08;3.42;;;1.45;;
37051;SDS011;22964;52.272;13.356;2023-12-20T13:48:34;4.72;;;1.40;;
37051;SDS011;22964;52.272;13.356;2023-12-20T13:51:00;5.85;;;1.55;;
37051;SDS011;22964;52.272;13.356;2023-12-20T13:53:27;5.70;;;1.50;;
37051;SDS011;22964;52.272;13.356;2023-12-20T13:55:53;5.13;;;1.20;;
37051;SDS011;22964;52.272;13.356;2023-12-20T13:58:19;1.95;;;0.82;;
37051;SDS011;22964;52.272;13.356;2023-12-20T14:00:45;1.98;;;0.70;;
37051;SDS011;22964;52.272;13.356;2023-12-20T14:03:11;2.38;;;0.70;;
37051;SDS011;22964;52.272;13.356;2023-12-20T14:05:37;1.38;;;0.60;;
37051;SDS011;22964;52.272;13.356;2023-12-20T14:08:03;2.13;;;0.98;;
37051;SDS011;22964;52.272;13.356;2023-12-20T14:10:29;1.17;;;0.70;;
37051;SDS011;22964;52.272;13.356;2023-12-20T14:12:55;1.30;;;0.68;;
37051;SDS011;22964;52.272;13.356;2023-12-20T14:15:21;4.18;;;0.80;;
37051;SDS011;22964;52.272;13.356;2023-12-20T14:17:46;1.65;;;0.90;;
37051;SDS011;22964;52.272;13.356;2023-12-20T14:20:12;2.60;;;0.80;;
37051;SDS011;22964;52.272;13.356;2023-12-20T14:22:38;2.72;;;0.82;;
37051;SDS011;22964;52.272;13.356;2023-12-20T14:25:10;1.58;;;0.70;;
37051;SDS011;22964;52.272;13.356;2023-12-20T14:27:37;1.75;;;0.60;;
37051;SDS011;22964;52.272;13.356;2023-12-20T14:30:04;2.63;;;0.80;;
37051;SDS011;22964;52.272;13.356;2023-12-20T14:32:31;1.33;;;0.70;;
37051;SDS011;22964;52.272;13.356;2023-12-20T14:34:57;0.95;;;0.70;;
37051;SDS011;22964;52.272;13.356;2023-12-20T14:37:23;2.38;;;0.80;;
37051;SDS011;22964;52.272;13.356;2023-12-20T14:39:48;2.35;;;1.10;;